Time;durP1;ratioP1;P1;durP2;ratioP2;P2;SDS_P1;SDS_P2;PMS_P1;PMS_P2;Temp;Humidity;BMP_temperature;BMP_pressure;BME280_temperature;BME280_humidity;BME280_pressure;Samples;Min_cycle;Max_cycle;Signal;HPM_P1;HPM_P2
2022/12/26 00:02:02;;;;;;;10.15;7.15;;;;;;;11.18;63.70;99501.25;10384947;28;20061;-63
2022/12/26 00:07:04;;;;;;;7.00;2.70;;;;;;;11.16;63.70;99479.59;10383950;28;20054;-62
2022/12/26 00:12:05;;;;;;;5.25;2.70;;;;;;;11.16;63.90;99459.50;10379773;28;20056;-62
2022/12/26 00:17:07;;;;;;;6.63;2.55;;;;;;;11.17;63.81;99491.75;10383179;28;20046;-62
2022/12/26 00:22:09;;;;;;;6.10;2.70;;;;;;;11.10;64.14;99506.19;10383953;28;20469;-61
2022/12/26 00:27:10;;;;;;;5.90;2.80;;;;;;;11.14;63.91;99494.56;10387368;28;20041;-62
2022/12/26 00:32:12;;;;;;;5.82;2.38;;;;;;;11.13;64.04;99496.34;10376595;28;20560;-62
2022/12/26 00:37:14;;;;;;;5.70;2.70;;;;;;;11.17;63.72;99507.44;10391349;28;20053;-62
2022/12/26 00:42:15;;;;;;;4.72;2.72;;;;;;;11.03;64.15;99497.06;10389983;28;20045;-62
2022/12/26 00:47:17;;;;;;;6.88;2.58;;;;;;;11.18;64.10;99498.63;10384051;28;20088;-62
2022/12/26 00:52:19;;;;;;;4.57;2.60;;;;;;;11.19;63.89;99493.28;10392028;28;20057;-62
2022/12/26 00:57:20;;;;;;;8.57;2.63;;;;;;;11.17;64.11;99496.97;10391517;28;20054;-61
2022/12/26 01:02:37;;;;;;;4.88;2.47;;;;;;;11.19;64.12;99510.81;10389898;28;20049;-62
2022/12/26 01:07:40;;;;;;;5.57;2.70;;;;;;;11.18;64.14;99512.56;10388712;28;20053;-62
2022/12/26 01:13:02;;;;;;;5.72;2.70;;;;;;;11.18;64.17;99504.72;10388769;28;20127;-62
2022/12/26 01:18:04;;;;;;;7.55;2.58;;;;;;;11.25;63.78;99503.34;10388374;28;20139;-62
2022/12/26 01:23:05;;;;;;;7.22;2.35;;;;;;;11.10;64.38;99516.66;10389729;28;20049;-62
2022/12/26 01:28:07;;;;;;;5.28;2.70;;;;;;;11.18;63.99;99512.56;10391372;28;20049;-62
2022/12/26 01:33:09;;;;;;;6.45;2.70;;;;;;;11.19;63.63;99524.69;10389709;28;20057;-62
2022/12/26 01:38:10;;;;;;;7.13;2.53;;;;;;;11.15;64.12;99544.19;10378967;28;20691;-63
2022/12/26 01:43:14;;;;;;;7.57;2.75;;;;;;;11.13;64.11;99547.88;10387642;28;20052;-63
2022/12/26 01:48:19;;;;;;;5.57;2.60;;;;;;;11.08;64.01;99556.03;10380451;28;20405;-63
2022/12/26 01:53:29;;;;;;;5.25;2.50;;;;;;;11.03;64.25;99575.56;10384563;28;20057;-63
2022/12/26 01:58:34;;;;;;;7.55;2.45;;;;;;;11.05;64.25;99568.47;10382361;28;20061;-63
2022/12/26 02:09:02;;;;;;;6.00;2.63;;;;;;;11.21;64.09;99572.56;10384638;28;20061;-63
2022/12/26 02:14:06;;;;;;;5.82;2.60;;;;;;;11.32;63.68;99563.16;10383656;28;20055;-63
2022/12/26 02:19:22;;;;;;;6.18;2.80;;;;;;;11.30;63.37;99563.25;10374672;28;20048;-62
2022/12/26 02:24:50;;;;;;;9.43;2.67;;;;;;;11.30;63.14;99556.22;10387067;28;20084;-62
2022/12/26 02:30:06;;;;;;;5.47;3.03;;;;;;;11.30;63.14;99566.69;10382851;28;20783;-62
2022/12/26 02:35:43;;;;;;;6.35;2.72;;;;;;;11.35;62.63;99569.00;10385986;28;20049;-63
2022/12/26 02:41:22;;;;;;;5.78;2.65;;;;;;;11.43;62.80;99574.56;10387426;28;20052;-62
2022/12/26 02:47:01;;;;;;;4.35;2.42;;;;;;;11.57;62.84;99584.91;10386840;28;20502;-62
2022/12/26 03:14:12;;;;;;;5.43;2.50;;;;;;;11.45;62.82;99584.91;10391808;28;20053;-63
2022/12/26 03:19:14;;;;;;;4.83;2.20;;;;;;;11.48;62.79;99569.00;10390857;28;20060;-62
2022/12/26 03:24:16;;;;;;;7.03;2.40;;;;;;;11.43;62.86;99556.22;10392153;28;20056;-62
2022/12/26 03:34:43;;;;;;;8.70;2.63;;;;;;;11.29;62.88;99525.75;10390770;28;20060;-62
2022/12/26 04:19:29;;;;;;;10.38;2.45;;;;;;;11.14;62.90;99575.69;10383596;28;20080;-61
2022/12/26 04:46:15;;;;;;;8.07;2.35;;;;;;;11.17;63.16;99565.03;10384040;28;20049;-62
2022/12/26 04:51:17;;;;;;;9.45;2.67;;;;;;;11.08;63.17;99560.41;10383163;28;20053;-62
2022/12/26 04:56:18;;;;;;;5.93;2.90;;;;;;;11.11;63.25;99568.88;10383232;28;20715;-61
2022/12/26 05:12:07;;;;;;;5.30;2.43;;;;;;;11.17;62.70;99580.75;10382351;28;20053;-61
2022/12/26 05:38:37;;;;;;;5.97;2.42;;;;;;;11.35;62.35;99579.47;10388822;28;20052;-64
2022/12/26 05:43:39;;;;;;;6.55;2.40;;;;;;;11.36;62.08;99577.72;10389967;28;20421;-63
2022/12/26 05:48:41;;;;;;;7.07;2.20;;;;;;;11.39;62.07;99582.72;10388777;28;20045;-63
2022/12/26 05:53:42;;;;;;;6.50;2.17;;;;;;;11.43;61.73;99587.66;10388466;28;20052;-63
2022/12/26 05:58:44;;;;;;;6.70;2.50;;;;;;;11.43;61.79;99586.81;10386502;28;20058;-60
2022/12/26 06:03:50;;;;;;;6.10;2.20;;;;;;;11.43;61.64;99605.97;10389037;28;20045;-61
2022/12/26 06:08:54;;;;;;;5.35;2.13;;;;;;;11.47;61.33;99593.50;10388736;28;20124;-61
2022/12/26 06:13:56;;;;;;;8.00;2.10;;;;;;;11.45;61.38;99600.63;10385672;28;20056;-61
2022/12/26 06:18:57;;;;;;;4.45;1.92;;;;;;;11.44;61.05;99598.97;10388376;28;20056;-61
2022/12/26 06:23:59;;;;;;;5.03;2.10;;;;;;;11.43;61.16;99597.28;10387637;28;20514;-62
2022/12/26 06:29:01;;;;;;;4.38;1.90;;;;;;;11.46;60.89;99599.69;10385758;28;20042;-62
2022/12/26 06:34:02;;;;;;;3.40;1.70;;;;;;;11.53;60.82;99600.94;10388955;28;20060;-62
2022/12/26 06:39:04;;;;;;;6.13;2.00;;;;;;;11.45;61.43;99593.63;10385493;28;20065;-62
2022/12/26 06:44:05;;;;;;;5.28;2.00;;;;;;;11.52;61.42;99597.47;10386752;28;20048;-62
2022/12/26 06:49:10;;;;;;;5.57;1.88;;;;;;;11.42;61.69;99595.63;10386086;28;20057;-62
2022/12/26 06:54:15;;;;;;;4.50;1.83;;;;;;;11.36;61.71;99601.28;10386465;28;20045;-62
2022/12/26 06:59:17;;;;;;;5.55;1.90;;;;;;;11.27;62.11;99600.94;10385232;28;20057;-62
2022/12/26 07:04:18;;;;;;;4.53;1.70;;;;;;;11.32;62.14;99595.38;10384289;28;20493;-62
2022/12/26 07:09:20;;;;;;;5.03;2.00;;;;;;;11.20;62.42;99614.53;10386759;28;20303;-62
2022/12/26 07:14:22;;;;;;;5.03;1.92;;;;;;;11.05;63.08;99613.78;10385064;28;20378;-63
2022/12/26 07:19:23;;;;;;;5.72;1.92;;;;;;;10.88;63.32;99639.38;10384521;28;20045;-63
2022/12/26 07:24:25;;;;;;;2.58;1.40;;;;;;;10.71;63.79;99645.69;10385823;28;20049;-63
2022/12/26 07:29:27;;;;;;;4.15;1.70;;;;;;;10.65;64.11;99648.69;10384997;28;20437;-63
2022/12/26 07:34:29;;;;;;;3.88;1.60;;;;;;;10.45;64.43;99654.38;10384468;28;20057;-63
2022/12/26 07:39:32;;;;;;;2.60;1.20;;;;;;;10.35;64.45;99668.97;10383385;28;20167;-62
2022/12/26 07:44:34;;;;;;;4.50;1.20;;;;;;;10.23;64.81;99674.97;10373280;28;20048;-63
2022/12/26 07:49:39;;;;;;;2.78;1.35;;;;;;;10.26;65.09;99686.06;10383190;28;20129;-62
2022/12/26 07:54:40;;;;;;;2.75;1.17;;;;;;;10.15;65.11;99674.59;10379337;28;20052;-63
2022/12/26 07:59:42;;;;;;;2.42;1.10;;;;;;;10.13;64.70;99666.84;10380485;28;20492;-63
2022/12/26 08:04:44;;;;;;;1.67;0.90;;;;;;;10.13;65.01;99653.78;10378505;28;20301;-63
2022/12/26 08:09:45;;;;;;;3.53;1.20;;;;;;;10.17;64.94;99663.13;10380910;28;20099;-62
2022/12/26 08:14:47;;;;;;;1.52;1.00;;;;;;;10.31;64.51;99659.63;10377788;28;20080;-62
2022/12/26 08:19:49;;;;;;;1.90;1.20;;;;;;;10.35;64.58;99642.81;10381721;28;20052;-63
2022/12/26 08:24:50;;;;;;;3.03;1.10;;;;;;;10.37;64.44;99661.84;10379648;28;20053;-63
2022/12/26 08:29:52;;;;;;;2.40;1.10;;;;;;;10.46;64.23;99700.50;10380690;28;20477;-62
2022/12/26 08:34:53;;;;;;;2.22;1.30;;;;;;;10.50;64.40;99689.72;10375902;28;20045;-63
2022/12/26 08:39:55;;;;;;;3.08;1.50;;;;;;;10.53;64.30;99709.63;10377483;28;20056;-63
2022/12/26 08:44:57;;;;;;;3.55;2.00;;;;;;;10.43;64.82;99729.44;10371132;28;20049;-62
2022/12/26 08:49:58;;;;;;;3.42;2.00;;;;;;;10.50;64.84;99715.06;10384226;28;20266;-62
2022/12/26 08:55:00;;;;;;;3.65;1.50;;;;;;;10.47;65.18;99717.84;10382521;28;20521;-63
2022/12/26 09:00:04;;;;;;;3.75;1.65;;;;;;;10.48;65.39;99696.03;10386008;28;20239;-62
2022/12/26 09:05:06;;;;;;;3.00;1.52;;;;;;;10.32;65.84;99737.09;10384476;28;20080;-63
2022/12/26 09:10:08;;;;;;;4.20;2.25;;;;;;;10.43;65.91;99759.06;10385629;28;20045;-63
2022/12/26 09:15:10;;;;;;;4.68;1.98;;;;;;;10.52;65.91;99757.66;10383420;28;20041;-63
2022/12/26 09:20:12;;;;;;;4.78;2.65;;;;;;;10.55;66.08;99775.75;10386791;28;20053;-63
2022/12/26 09:25:14;;;;;;;6.25;2.03;;;;;;;10.62;66.01;99765.75;10381739;28;20042;-63
2022/12/26 09:30:15;;;;;;;8.32;3.42;;;;;;;10.82;65.53;99760.94;10384711;28;20050;-64
2022/12/26 09:35:17;;;;;;;7.68;2.92;;;;;;;10.79;65.39;99753.28;10382898;28;20053;-63
2022/12/26 09:40:22;;;;;;;3.17;1.63;;;;;;;10.93;65.03;99745.38;10385288;28;20055;-65
2022/12/26 09:45:50;;;;;;;9.10;4.47;;;;;;;10.99;64.71;99775.56;10382320;28;20136;-63
2022/12/26 09:50:52;;;;;;;6.32;2.58;;;;;;;11.11;64.56;99770.41;10384413;28;20419;-64
2022/12/26 09:56:04;;;;;;;4.18;1.77;;;;;;;11.03;63.96;99767.41;10383554;28;20528;-63
2022/12/26 10:01:28;;;;;;;4.13;1.60;;;;;;;11.18;63.53;99766.47;10412618;28;20056;-64
2022/12/26 10:06:40;;;;;;;3.88;1.67;;;;;;;11.42;62.68;99763.19;10382076;28;20053;-63
2022/12/26 10:12:04;;;;;;;3.70;1.75;;;;;;;11.48;62.06;99757.56;10382504;28;20390;-63
2022/12/26 10:17:24;;;;;;;4.50;2.00;;;;;;;11.48;62.77;99768.84;10381767;28;20512;-63
2022/12/26 10:22:36;;;;;;;6.30;3.10;;;;;;;11.49;62.54;99770.53;10383103;28;20053;-64
2022/12/26 10:27:40;;;;;;;3.83;1.80;;;;;;;11.96;61.76;99765.59;10382673;28;20072;-63
2022/12/26 10:32:47;;;;;;;3.75;1.90;;;;;;;11.94;61.40;99759.63;10381467;28;20146;-62
2022/12/26 10:37:50;;;;;;;6.13;1.80;;;;;;;11.82;61.43;99757.81;10381902;28;20049;-61
2022/12/26 10:42:55;;;;;;;3.47;1.92;;;;;;;11.85;61.34;99768.09;10376255;28;20049;-61
2022/12/26 10:47:57;;;;;;;4.97;1.88;;;;;;;11.88;61.03;99769.66;10382246;28;20433;-61
2022/12/26 10:53:00;;;;;;;4.07;2.03;;;;;;;11.82;61.09;99773.53;10380933;28;20533;-62
2022/12/26 10:58:31;;;;;;;3.33;1.52;;;;;;;11.87;60.24;99778.44;10380565;28;20451;-61
2022/12/26 11:03:32;;;;;;;2.08;1.30;;;;;;;11.85;60.43;99777.72;10377255;28;20413;-62
2022/12/26 11:08:45;;;;;;;2.92;1.30;;;;;;;11.85;59.91;99767.22;10383530;28;20405;-61
2022/12/26 11:13:53;;;;;;;2.92;1.33;;;;;;;11.80;59.88;99780.66;10378630;28;20076;-62
2022/12/26 11:19:02;;;;;;;3.17;1.23;;;;;;;11.85;59.96;99788.19;10385510;28;20064;-61
2022/12/26 11:24:07;;;;;;;3.03;1.33;;;;;;;11.73;59.70;99800.34;10383841;28;20049;-60
2022/12/26 11:29:24;;;;;;;2.63;1.20;;;;;;;11.54;59.81;99791.19;10384154;28;20138;-60
2022/12/26 11:34:33;;;;;;;2.47;1.30;;;;;;;11.74;59.76;99790.72;10383657;28;20059;-61
2022/12/26 11:39:36;;;;;;;3.55;1.40;;;;;;;11.59;59.84;99789.09;10381073;28;20057;-61
2022/12/26 11:44:44;;;;;;;2.35;1.30;;;;;;;11.60;60.00;99786.38;10379449;28;20157;-61
2022/12/26 11:50:01;;;;;;;4.65;1.33;;;;;;;11.47;59.59;99782.91;10382179;28;20823;-60
2022/12/26 11:55:21;;;;;;;2.92;1.85;;;;;;;11.64;59.30;99776.56;10374281;28;20049;-60
2022/12/26 12:00:23;;;;;;;2.90;1.20;;;;;;;11.86;59.39;99768.94;10375897;28;20057;-61
2022/12/26 12:05:28;;;;;;;3.13;1.23;;;;;;;11.96;58.96;99769.97;10373203;28;20045;-60
2022/12/26 12:10:43;;;;;;;4.00;1.52;;;;;;;11.90;58.96;99776.47;10373789;28;20056;-60
2022/12/26 12:15:56;;;;;;;5.40;1.42;;;;;;;12.03;58.22;99760.75;10373500;28;20595;-61
2022/12/26 12:21:14;;;;;;;5.90;1.50;;;;;;;12.14;58.31;99756.47;10376728;28;20044;-61
2022/12/26 12:26:29;;;;;;;3.30;1.35;;;;;;;12.24;58.13;99761.91;10385797;28;20041;-61
2022/12/26 12:32:07;;;;;;;3.80;1.50;;;;;;;12.26;58.12;99773.13;10369073;28;20143;-61
2022/12/26 12:37:34;;;;;;;1.98;1.13;;;;;;;12.11;57.74;99769.75;10384318;28;20072;-61
2022/12/26 12:42:38;;;;;;;6.43;3.50;;;;;;;12.03;58.61;99765.97;10377309;28;20203;-61
2022/12/26 12:48:19;;;;;;;4.53;1.80;;;;;;;11.87;58.19;99766.19;10384749;28;20432;-61
2022/12/26 12:53:30;;;;;;;6.45;1.55;;;;;;;11.91;57.99;99762.44;10383093;28;20085;-61
2022/12/26 12:58:31;;;;;;;;;;;;;;;11.65;58.57;99759.88;10385479;28;20053;-61
2022/12/26 13:03:36;;;;;;;;;;;;;;;11.65;58.17;99754.63;10381108;28;19932;-62
2022/12/26 13:08:47;;;;;;;5.07;2.33;;;;;;;11.92;57.38;99755.41;10384053;28;20383;-62
2022/12/26 13:14:01;;;;;;;9.02;5.28;;;;;;;11.96;57.30;99741.16;10382012;28;20349;-61
2022/12/26 13:19:15;;;;;;;4.45;2.03;;;;;;;11.82;56.76;99725.53;10377099;28;20513;-61
2022/12/26 13:24:32;;;;;;;7.25;2.70;;;;;;;11.76;56.81;99725.94;10382863;28;20045;-62
2022/12/26 13:29:43;;;;;;;8.10;5.05;;;;;;;11.69;57.47;99730.75;10379476;28;20056;-61
2022/12/26 13:34:46;;;;;;;2.42;1.38;;;;;;;11.59;57.97;99740.19;10382390;28;20061;-62
2022/12/26 13:39:51;;;;;;;5.20;1.42;;;;;;;11.62;58.14;99732.09;10382985;28;20417;-62
2022/12/26 13:44:53;;;;;;;2.38;1.20;;;;;;;11.50;58.34;99735.53;10375903;28;20060;-62
2022/12/26 13:49:55;;;;;;;3.65;1.42;;;;;;;11.48;58.35;99739.22;10384246;28;20059;-62
2022/12/26 13:55:05;;;;;;;2.42;1.05;;;;;;;11.34;57.97;99740.13;10384647;28;20053;-62
2022/12/26 14:00:16;;;;;;;3.30;1.50;;;;;;;11.38;58.03;99751.25;10381350;28;20072;-61
2022/12/26 14:05:23;;;;;;;2.60;1.17;;;;;;;11.36;58.17;99758.38;10379245;28;20493;-61
2022/12/26 14:10:31;;;;;;;1.67;0.90;;;;;;;11.22;58.40;99765.31;10385413;28;20053;-62
2022/12/26 14:15:35;;;;;;;3.30;1.15;;;;;;;11.26;58.63;99766.81;10383632;28;20056;-62
2022/12/26 14:20:43;;;;;;;5.20;1.40;;;;;;;11.23;58.12;99774.84;10386377;28;20057;-62
2022/12/26 14:26:01;;;;;;;3.00;1.05;;;;;;;11.15;57.15;99776.31;10387671;28;20045;-63
2022/12/26 14:31:13;;;;;;;2.30;0.98;;;;;;;11.08;57.55;99769.78;10388145;28;20374;-61
2022/12/26 14:36:33;;;;;;;1.65;0.95;;;;;;;11.01;56.48;99758.00;10387410;28;20061;-61
2022/12/26 14:47:43;;;;;;;2.30;0.97;;;;;;;10.93;56.04;99771.56;10387575;28;20179;-61
2022/12/26 14:52:44;;;;;;;2.60;1.20;;;;;;;10.85;56.77;99784.28;10387415;28;20231;-61
2022/12/26 14:57:47;;;;;;;5.22;2.60;;;;;;;10.83;57.01;99791.38;10387267;28;20053;-61
2022/12/26 15:03:00;;;;;;;2.50;1.20;;;;;;;10.75;56.32;99798.88;10387090;28;20056;-61
2022/12/26 15:08:24;;;;;;;2.47;1.15;;;;;;;10.66;57.06;99789.00;10386866;28;20061;-61
2022/12/26 15:13:34;;;;;;;2.42;1.10;;;;;;;10.72;57.21;99785.16;10385864;28;20505;-62
2022/12/26 15:18:36;;;;;;;4.68;1.20;;;;;;;10.59;57.53;99782.47;10386769;28;20061;-62
2022/12/26 15:24:21;;;;;;;4.30;1.60;;;;;;;10.55;57.94;99801.03;10385824;28;20044;-62
2022/12/26 15:30:09;;;;;;;2.58;1.30;;;;;;;10.53;58.45;99801.16;10386611;28;20053;-62
2022/12/26 15:35:35;;;;;;;3.95;1.60;;;;;;;10.50;59.69;99794.31;10386272;28;20052;-62
2022/12/26 15:40:42;;;;;;;5.75;1.60;;;;;;;10.43;60.58;99803.50;10386006;28;20064;-62
2022/12/26 15:45:50;;;;;;;4.80;1.33;;;;;;;10.41;61.06;99807.13;10385252;28;20513;-62
2022/12/26 15:51:20;;;;;;;5.03;1.35;;;;;;;10.42;61.19;99801.78;10385977;28;20157;-62
2022/12/26 15:56:37;;;;;;;4.00;1.50;;;;;;;10.38;61.55;99821.22;10385514;28;20049;-62
2022/12/26 16:01:45;;;;;;;4.47;1.38;;;;;;;10.30;60.74;99886.19;10385560;28;20064;-62
2022/12/26 16:07:18;;;;;;;0.98;0.68;;;;;;;9.26;61.23;99907.84;10385436;28;20331;-62
2022/12/26 16:12:29;;;;;;;0.70;0.65;;;;;;;8.58;62.63;99895.06;10383861;28;20053;-62
2022/12/26 16:17:31;;;;;;;0.90;0.65;;;;;;;8.63;62.91;99916.50;10384348;28;20052;-62
2022/12/26 16:22:45;;;;;;;1.45;0.80;;;;;;;8.50;64.09;99923.28;10385130;28;20132;-62
2022/12/26 16:27:53;;;;;;;1.20;0.52;;;;;;;8.37;64.47;99920.44;10384796;28;20049;-62
2022/12/26 16:32:55;;;;;;;2.80;0.70;;;;;;;8.33;64.23;99910.25;10384484;28;20045;-62
2022/12/26 16:37:58;;;;;;;1.45;0.70;;;;;;;8.32;64.81;99917.25;10383204;28;20050;-62
2022/12/26 16:43:04;;;;;;;1.15;0.63;;;;;;;8.42;64.72;99933.25;10384258;28;20049;-62
2022/12/26 16:48:08;;;;;;;1.98;1.00;;;;;;;8.58;64.57;99928.94;10383318;28;20068;-62
2022/12/26 16:53:13;;;;;;;2.20;1.10;;;;;;;8.65;64.73;99958.97;10384617;28;20049;-62
2022/12/26 16:58:26;;;;;;;1.13;0.90;;;;;;;8.58;64.91;99955.00;10384353;28;20540;-62
2022/12/26 17:03:47;;;;;;;1.33;0.82;;;;;;;8.65;64.73;99969.38;10384127;28;20041;-62
2022/12/26 17:08:50;;;;;;;10.33;6.07;;;;;;;8.55;65.20;99968.19;10385784;28;20592;-62
2022/12/26 17:13:53;;;;;;;3.10;1.30;;;;;;;8.44;65.96;99980.94;10390045;28;20049;-62
2022/12/26 17:19:07;;;;;;;2.45;0.90;;;;;;;8.23;66.34;99988.03;10390996;28;20059;-62
2022/12/26 17:24:25;;;;;;;2.13;1.15;;;;;;;7.97;67.62;100004.91;10391366;28;20689;-62
2022/12/26 17:29:44;;;;;;;3.92;1.45;;;;;;;7.56;67.65;99990.41;10389985;28;20064;-63
2022/12/26 17:34:46;;;;;;;2.08;1.30;;;;;;;7.44;66.24;100000.53;10387165;28;20525;-62
2022/12/26 17:39:53;;;;;;;2.17;1.20;;;;;;;7.38;66.10;100022.47;10389991;28;20049;-63
2022/12/26 17:45:03;;;;;;;3.33;1.30;;;;;;;7.28;65.70;100031.59;10390726;28;20056;-62
2022/12/26 17:50:04;;;;;;;4.28;1.40;;;;;;;7.29;65.83;100033.28;10390263;28;20049;-62
2022/12/26 17:55:15;;;;;;;5.78;3.30;;;;;;;7.29;65.27;100037.63;10388833;28;20061;-62
2022/12/26 18:00:25;;;;;;;;;;;;;;;6.91;66.10;100047.13;10389465;28;20056;-63
2022/12/26 18:05:26;;;;;;;4.30;1.63;;;;;;;6.91;65.45;100068.78;10387268;28;19939;-63
2022/12/26 18:10:30;;;;;;;6.18;1.80;;;;;;;7.02;65.33;100084.75;10389531;28;20045;-63
2022/12/26 18:15:32;;;;;;;5.85;1.50;;;;;;;7.08;64.59;100091.47;10389765;28;20664;-62
2022/12/26 18:20:33;;;;;;;5.78;2.22;;;;;;;6.89;63.66;100101.78;10387450;28;20050;-62
2022/12/26 18:25:36;;;;;;;3.38;1.45;;;;;;;6.80;64.17;100098.69;10388443;28;20535;-62
2022/12/26 18:30:38;;;;;;;5.68;1.60;;;;;;;6.90;63.55;100115.59;10378374;28;20050;-63
2022/12/26 18:35:41;;;;;;;4.97;1.60;;;;;;;6.81;62.75;100111.66;10390980;28;20138;-62
2022/12/26 18:40:49;;;;;;;7.32;2.17;;;;;;;6.69;62.91;100121.72;10382574;28;20045;-63
2022/12/26 18:45:51;;;;;;;5.20;1.90;;;;;;;6.46;63.15;100138.22;10382200;28;20049;-62
2022/12/26 18:50:53;;;;;;;4.68;1.60;;;;;;;6.26;63.09;100146.81;10416736;28;20053;-63
2022/12/26 18:55:55;;;;;;;4.82;2.10;;;;;;;6.18;63.17;100143.63;10386138;28;20437;-64
2022/12/26 19:01:04;;;;;;;5.20;1.70;;;;;;;6.13;61.57;100150.72;10377278;28;20064;-63
2022/12/26 19:06:20;;;;;;;4.88;1.80;;;;;;;6.29;61.52;100162.25;10384597;28;20068;-63
2022/12/26 19:11:21;;;;;;;6.55;1.80;;;;;;;6.32;61.01;100162.16;10381146;28;20412;-63
2022/12/26 19:16:23;;;;;;;6.00;2.00;;;;;;;6.23;61.50;100178.03;10383758;28;20084;-63
2022/12/26 19:21:25;;;;;;;6.93;2.10;;;;;;;6.19;60.94;100198.97;10383629;28;20076;-63
2022/12/26 19:26:27;;;;;;;4.70;1.98;;;;;;;6.05;61.36;100211.63;10384474;28;20142;-64
2022/12/26 19:31:29;;;;;;;8.38;2.10;;;;;;;6.07;61.26;100233.19;10382126;28;20347;-64
2022/12/26 19:36:31;;;;;;;4.32;2.00;;;;;;;6.21;60.88;100236.97;10382255;28;20142;-64
2022/12/26 19:41:32;;;;;;;7.22;2.03;;;;;;;6.33;60.57;100246.94;10378924;28;20068;-64
2022/12/26 19:46:34;;;;;;;8.23;2.50;;;;;;;6.44;60.72;100263.88;10381039;28;20413;-64
2022/12/26 19:51:35;;;;;;;6.78;2.80;;;;;;;6.57;61.13;100271.16;10380228;28;20421;-64
2022/12/26 19:56:37;;;;;;;8.27;2.50;;;;;;;6.57;60.97;100285.91;10384213;28;20294;-63
2022/12/26 20:01:40;;;;;;;6.38;2.13;;;;;;;6.63;61.06;100307.31;10382209;28;20049;-63
2022/12/26 20:06:42;;;;;;;9.25;2.65;;;;;;;6.60;60.63;100316.97;10382689;28;20057;-62
2022/12/26 20:11:48;;;;;;;10.60;2.80;;;;;;;6.44;61.00;100331.44;10384065;28;20068;-63
2022/12/26 20:16:53;;;;;;;5.47;2.53;;;;;;;6.19;62.04;100337.47;10381970;28;20056;-63
2022/12/26 20:22:10;;;;;;;9.33;3.17;;;;;;;6.34;61.59;100351.69;10384011;28;20045;-63
2022/12/26 20:27:12;;;;;;;10.75;3.17;;;;;;;6.53;61.68;100367.47;10382441;28;20045;-63
2022/12/26 20:32:14;;;;;;;8.80;3.40;;;;;;;6.23;61.15;100383.22;10382713;28;20721;-64
2022/12/26 20:37:17;;;;;;;9.52;3.80;;;;;;;5.93;61.42;100393.78;10381964;28;20057;-63
2022/12/26 20:42:19;;;;;;;8.90;3.28;;;;;;;5.69;61.42;100410.19;10381796;28;20388;-63
2022/12/26 20:47:20;;;;;;;13.40;3.67;;;;;;;5.54;61.29;100425.34;10391965;28;20050;-63
2022/12/26 20:52:22;;;;;;;10.95;3.88;;;;;;;5.36;61.53;100436.28;10389659;28;20505;-63
2022/12/26 20:57:24;;;;;;;10.60;3.40;;;;;;;5.21;60.88;100451.44;10390148;28;20061;-62
2022/12/26 21:02:25;;;;;;;10.70;3.75;;;;;;;5.15;61.21;100477.53;10390762;28;20602;-62
2022/12/26 21:07:31;;;;;;;9.38;3.15;;;;;;;5.08;60.86;100486.41;10390770;28;20099;-63
2022/12/26 21:12:32;;;;;;;11.75;3.42;;;;;;;5.01;61.26;100503.00;10389892;28;20425;-62
2022/12/26 21:17:35;;;;;;;8.68;3.65;;;;;;;4.99;61.44;100507.38;10390941;28;20060;-63
2022/12/26 21:22:37;;;;;;;8.40;3.60;;;;;;;4.83;61.15;100521.66;10385213;28;20054;-63
2022/12/26 21:27:41;;;;;;;10.80;3.38;;;;;;;4.76;61.31;100531.34;10389267;28;20557;-62
2022/12/26 21:32:46;;;;;;;11.40;3.42;;;;;;;4.69;61.15;100535.84;10388881;28;20056;-62
2022/12/26 21:37:50;;;;;;;12.10;3.35;;;;;;;4.55;61.10;100545.72;10387010;28;20041;-62
2022/12/26 21:42:51;;;;;;;9.32;3.20;;;;;;;4.49;61.09;100552.78;10387698;28;20577;-63
2022/12/26 21:47:53;;;;;;;8.73;3.05;;;;;;;4.35;61.14;100552.28;10388376;28;20045;-62
2022/12/26 21:52:55;;;;;;;10.95;3.15;;;;;;;4.34;61.43;100556.59;10388958;28;20060;-62
2022/12/26 21:57:59;;;;;;;8.07;2.83;;;;;;;4.17;61.21;100568.28;10387484;28;20144;-62
2022/12/26 22:08:23;;;;;;;12.43;3.50;;;;;;;3.96;61.96;100589.47;10388462;28;20055;-62
2022/12/26 22:13:25;;;;;;;14.35;3.65;;;;;;;3.74;62.77;100591.63;10387363;28;20050;-62
2022/12/26 22:18:45;;;;;;;11.02;3.58;;;;;;;3.79;62.72;100601.00;10386935;28;20405;-62
2022/12/26 22:23:52;;;;;;;14.02;3.85;;;;;;;3.75;62.58;100608.84;10384171;28;20115;-62
2022/12/26 22:28:55;;;;;;;10.32;3.80;;;;;;;3.65;62.90;100609.94;10385624;28;20079;-62
2022/12/26 22:34:05;;;;;;;9.48;2.97;;;;;;;3.55;63.09;100614.44;10385199;28;20316;-62
2022/12/26 22:39:11;;;;;;;16.88;3.67;;;;;;;3.56;62.53;100620.44;10385053;28;20406;-63
2022/12/26 22:44:13;;;;;;;11.27;2.45;;;;;;;3.62;62.41;100622.94;10381995;28;20245;-62
2022/12/26 22:49:15;;;;;;;10.38;3.72;;;;;;;3.53;62.26;100620.53;10387365;28;20088;-62
2022/12/26 22:54:17;;;;;;;6.85;2.50;;;;;;;3.50;62.11;100631.78;10386159;28;20826;-62
2022/12/26 22:59:19;;;;;;;11.70;2.80;;;;;;;3.44;62.20;100641.38;10384526;28;20050;-62
2022/12/26 23:04:42;;;;;;;12.65;2.78;;;;;;;3.38;62.41;100638.91;10385869;28;20042;-62
2022/12/26 23:09:44;;;;;;;6.75;2.17;;;;;;;3.35;62.15;100644.16;10382936;28;20139;-62
2022/12/26 23:14:46;;;;;;;8.50;2.55;;;;;;;3.29;62.29;100647.72;10377152;28;20650;-62
2022/12/26 23:25:11;;;;;;;7.28;2.15;;;;;;;3.33;62.23;100657.13;10377022;28;20395;-62
2022/12/26 23:30:16;;;;;;;10.85;2.13;;;;;;;3.33;61.93;100666.59;10381537;28;20422;-62
2022/12/26 23:35:19;;;;;;;7.70;2.50;;;;;;;3.25;62.24;100668.47;10384369;28;20056;-62
2022/12/26 23:40:22;;;;;;;7.95;2.40;;;;;;;3.28;62.45;100676.16;10381499;28;20049;-62
2022/12/26 23:45:24;;;;;;;9.52;2.63;;;;;;;3.37;62.06;100676.00;10384289;28;20049;-62
2022/12/26 23:50:25;;;;;;;9.27;2.70;;;;;;;3.27;62.40;100684.81;10383809;28;20064;-62
2022/12/26 23:55:27;;;;;;;9.65;4.20;;;;;;;3.23;62.89;100686.63;10384003;28;20049;-62
